createdAt,value
2023-03-11T00:01:04.143Z,21.33
2023-03-11T00:03:35.367Z,19.02
2023-03-11T00:06:11.124Z,22.02
2023-03-11T00:08:58.288Z,17.48
2023-03-11T00:11:27.417Z,19.33
2023-03-11T00:14:06.786Z,40.55
2023-03-11T00:16:37.669Z,19.17
2023-03-11T00:19:07.622Z,21.92
2023-03-11T00:21:40.512Z,40.67
2023-03-11T00:26:43.152Z,20.10
2023-03-11T00:32:06.830Z,20.30
2023-03-11T00:34:50.558Z,19.23
2023-03-11T00:37:24.708Z,19.42
2023-03-11T00:39:57.118Z,18.77
2023-03-11T00:42:35.682Z,28.83
2023-03-11T00:45:22.141Z,22.05
2023-03-11T00:47:52.879Z,18.90
2023-03-11T00:50:26.867Z,17.00
2023-03-11T00:53:05.910Z,18.45
2023-03-11T00:55:36.737Z,18.60
2023-03-11T00:58:07.672Z,21.90
2023-03-11T01:00:39.538Z,18.38
2023-03-11T01:03:17.853Z,21.40
2023-03-11T01:05:56.011Z,17.52
2023-03-11T01:08:29.646Z,17.77
2023-03-11T01:11:08.058Z,18.48
2023-03-11T01:13:41.137Z,17.58
2023-03-11T01:16:11.159Z,21.05
2023-03-11T01:18:39.898Z,17.98
2023-03-11T01:23:54.998Z,19.40
2023-03-11T01:26:24.805Z,18.33
2023-03-11T01:28:54.628Z,19.17
2023-03-11T01:31:24.372Z,18.77
2023-03-11T01:33:54.758Z,21.05
2023-03-11T01:36:29.515Z,18.33
2023-03-11T01:39:11.515Z,21.95
2023-03-11T01:41:41.954Z,17.98
2023-03-11T01:44:15.864Z,21.35
2023-03-11T01:47:21.356Z,18.77
2023-03-11T01:49:51.075Z,18.02
2023-03-11T01:52:24.904Z,20.00
2023-03-11T01:54:57.114Z,19.30
2023-03-11T02:00:12.415Z,21.60
2023-03-11T02:02:47.181Z,17.90
2023-03-11T02:05:18.039Z,21.23
2023-03-11T02:07:49.005Z,18.77
2023-03-11T02:10:29.333Z,18.98
2023-03-11T02:13:14.132Z,16.23
2023-03-11T02:15:46.331Z,16.85
2023-03-11T02:18:22.778Z,20.25
2023-03-11T02:21:11.837Z,21.30
2023-03-11T02:23:55.198Z,18.13
2023-03-11T02:26:37.361Z,16.95
2023-03-11T02:29:17.212Z,19.93
2023-03-11T02:32:00.702Z,17.10
2023-03-11T02:34:32.620Z,16.40
2023-03-11T02:37:08.815Z,18.67
2023-03-11T02:39:45.609Z,17.73
2023-03-11T02:42:23.745Z,20.23
2023-03-11T02:45:13.737Z,17.45
2023-03-11T02:47:52.290Z,17.15
2023-03-11T02:50:20.878Z,16.88
2023-03-11T02:52:51.206Z,17.17
2023-03-11T02:55:37.094Z,17.05
2023-03-11T02:58:07.941Z,18.90
2023-03-11T03:00:39.279Z,15.70
2023-03-11T03:03:08.335Z,19.65
2023-03-11T03:08:21.720Z,16.67
2023-03-11T03:10:59.746Z,18.75
2023-03-11T03:13:30.975Z,18.40
2023-03-11T03:16:06.336Z,17.33
2023-03-11T03:18:45.574Z,18.88
2023-03-11T03:21:15.880Z,20.00
2023-03-11T03:23:46.008Z,17.67
2023-03-11T03:26:15.967Z,19.50
2023-03-11T03:31:23.143Z,17.15
2023-03-11T03:33:54.915Z,17.38
2023-03-11T03:36:48.333Z,17.90
2023-03-11T03:39:19.155Z,19.02
2023-03-11T03:41:47.835Z,17.40
2023-03-11T03:44:18.413Z,19.35
2023-03-11T03:46:49.585Z,16.98
2023-03-11T03:49:26.280Z,17.02
2023-03-11T03:51:58.047Z,16.63
2023-03-11T03:54:28.187Z,16.23
2023-03-11T03:56:59.648Z,18.17
2023-03-11T03:59:32.356Z,16.83
2023-03-11T04:04:49.949Z,18.75
2023-03-11T04:10:11.937Z,20.13
2023-03-11T04:12:46.592Z,16.67
2023-03-11T04:15:16.290Z,20.10
2023-03-11T04:17:47.425Z,16.90
2023-03-11T04:20:19.062Z,18.60
2023-03-11T04:22:48.704Z,16.83
2023-03-11T04:25:18.457Z,20.90
2023-03-11T04:27:52.427Z,16.90
2023-03-11T04:30:22.460Z,18.65
2023-03-11T04:32:54.768Z,17.52
2023-03-11T04:35:25.107Z,18.63
2023-03-11T04:37:56.457Z,18.40
2023-03-11T04:43:10.566Z,20.45
2023-03-11T04:45:41.110Z,18.95
2023-03-11T04:48:15.934Z,21.20
2023-03-11T04:50:48.865Z,17.38
2023-03-11T04:58:40.759Z,16.67
2023-03-11T05:03:57.665Z,17.58
2023-03-11T05:06:28.575Z,18.35
2023-03-11T05:08:59.455Z,17.13
2023-03-11T05:11:46.103Z,17.00
2023-03-11T05:14:23.836Z,21.20
2023-03-11T05:19:42.962Z,17.80
2023-03-11T05:24:58.725Z,17.27
2023-03-11T05:27:45.090Z,17.10
2023-03-11T05:30:16.627Z,20.70
2023-03-11T05:35:33.512Z,17.67
2023-03-11T05:38:15.928Z,19.67
2023-03-11T05:40:45.521Z,16.60
2023-03-11T05:46:07.393Z,17.50
2023-03-11T05:48:44.953Z,18.35
2023-03-11T05:51:20.196Z,20.85
2023-03-11T05:53:51.013Z,16.60
2023-03-11T05:56:22.609Z,18.23
2023-03-11T05:58:52.634Z,19.60
2023-03-11T06:01:22.335Z,18.95
2023-03-11T06:03:52.036Z,17.38
2023-03-11T06:06:24.677Z,19.25
2023-03-11T06:11:29.786Z,18.83
2023-03-11T06:14:01.917Z,17.80
2023-03-11T06:16:30.708Z,18.40
2023-03-11T06:19:01.207Z,17.70
2023-03-11T06:21:34.862Z,22.48
2023-03-11T06:24:03.875Z,20.95
2023-03-11T06:26:33.579Z,18.73
2023-03-11T06:29:05.644Z,19.33
2023-03-11T06:31:35.002Z,19.55
2023-03-11T06:34:12.645Z,21.83
2023-03-11T06:36:43.794Z,18.63
2023-03-11T06:39:15.943Z,21.10
2023-03-11T06:41:45.122Z,18.80
2023-03-11T06:44:16.983Z,21.65
2023-03-11T06:46:45.883Z,19.27
2023-03-11T06:49:16.005Z,21.75
2023-03-11T06:51:47.684Z,18.65
2023-03-11T06:54:21.398Z,20.77
2023-03-11T06:59:22.951Z,18.17
2023-03-11T07:01:54.528Z,17.83
2023-03-11T07:04:26.960Z,20.08
2023-03-11T07:06:57.957Z,19.42
2023-03-11T07:09:28.605Z,20.65
2023-03-11T07:12:00.715Z,20.25
2023-03-11T07:14:30.586Z,19.50
2023-03-11T07:17:01.217Z,19.45
2023-03-11T07:19:32.145Z,19.40
2023-03-11T07:22:06.181Z,20.63
2023-03-11T07:24:34.935Z,19.70
2023-03-11T07:27:08.382Z,21.42
2023-03-11T07:29:38.351Z,20.42
2023-03-11T07:32:12.283Z,189.68
2023-03-11T07:34:52.000Z,19.85
2023-03-11T07:37:23.574Z,19.10
2023-03-11T07:40:09.266Z,598.40
2023-03-11T07:42:40.548Z,60.08
2023-03-11T07:45:11.005Z,22.35
2023-03-11T07:47:42.845Z,18.40
2023-03-11T07:50:13.355Z,22.10
2023-03-11T07:52:43.720Z,20.35
2023-03-11T07:55:15.406Z,22.75
2023-03-11T07:57:44.885Z,17.65
2023-03-11T08:00:18.056Z,21.88
2023-03-11T08:02:46.883Z,20.48
2023-03-11T08:05:19.247Z,23.98
2023-03-11T08:07:51.715Z,22.13
2023-03-11T08:10:21.653Z,22.23
2023-03-11T08:12:53.084Z,21.83
2023-03-11T08:15:22.900Z,24.08
2023-03-11T08:17:51.896Z,24.83
2023-03-11T08:20:22.617Z,28.08
2023-03-11T08:22:58.872Z,25.92
2023-03-11T08:25:28.009Z,25.48
2023-03-11T08:30:42.044Z,23.00
2023-03-11T08:33:15.965Z,54.00
2023-03-11T08:35:44.946Z,22.95
2023-03-11T08:38:17.123Z,24.52
2023-03-11T08:40:47.016Z,23.05
2023-03-11T08:43:19.595Z,26.23
2023-03-11T08:45:50.297Z,23.70
2023-03-11T08:48:21.035Z,23.48
2023-03-11T08:50:54.350Z,26.40
2023-03-11T08:53:30.321Z,25.88
2023-03-11T08:56:00.219Z,25.85
2023-03-11T08:58:29.329Z,25.30
2023-03-11T09:01:00.963Z,27.58
2023-03-11T09:03:33.131Z,31.48
2023-03-11T09:06:03.302Z,34.42
2023-03-11T09:08:34.511Z,31.42
2023-03-11T09:11:13.752Z,35.28
2023-03-11T09:13:51.230Z,28.90
2023-03-11T09:16:22.094Z,30.02
2023-03-11T09:18:52.370Z,30.50
2023-03-11T09:21:21.603Z,32.70
2023-03-11T09:23:55.596Z,29.20
2023-03-11T09:26:25.033Z,28.85
2023-03-11T09:28:54.308Z,26.33
2023-03-11T09:31:23.104Z,28.92
2023-03-11T09:33:55.826Z,26.92
2023-03-11T09:36:26.444Z,28.20
2023-03-11T09:38:58.517Z,29.23
2023-03-11T09:41:33.425Z,30.27
2023-03-11T09:44:34.219Z,30.92
2023-03-11T09:47:39.076Z,32.40
2023-03-11T09:50:32.245Z,34.88
2023-03-11T09:53:42.072Z,32.25
2023-03-11T09:56:24.775Z,33.60
2023-03-11T09:58:59.700Z,32.60
2023-03-11T10:01:33.442Z,33.45
2023-03-11T10:04:13.932Z,33.42
2023-03-11T10:06:48.900Z,31.83
2023-03-11T10:09:34.056Z,32.13
2023-03-11T10:12:32.701Z,34.03
2023-03-11T10:15:23.594Z,37.17
2023-03-11T10:18:49.049Z,31.13
2023-03-11T10:21:29.499Z,32.47
2023-03-11T10:24:25.458Z,30.25
2023-03-11T10:26:59.822Z,28.70
2023-03-11T10:29:34.159Z,29.73
2023-03-11T10:32:10.939Z,31.83
2023-03-11T10:34:47.884Z,1999.90
2023-03-11T10:37:21.660Z,1999.90
2023-03-11T10:39:51.809Z,1999.90
2023-03-11T10:42:25.040Z,1999.90
2023-03-11T10:45:14.830Z,34.17
2023-03-11T10:47:45.084Z,31.92
2023-03-11T10:50:22.100Z,28.58
2023-03-11T10:53:13.406Z,29.50
2023-03-11T10:55:50.954Z,29.13
2023-03-11T10:58:22.390Z,31.65
2023-03-11T11:01:08.691Z,30.35
2023-03-11T11:03:42.985Z,29.83
2023-03-11T11:06:23.119Z,33.22
2023-03-11T11:09:32.994Z,23.58
2023-03-11T11:12:08.365Z,31.65
2023-03-11T11:14:47.420Z,26.08
2023-03-11T11:17:35.662Z,27.42
2023-03-11T11:20:13.306Z,26.25
2023-03-11T11:22:50.752Z,29.23
2023-03-11T11:25:29.651Z,30.98
2023-03-11T11:28:00.608Z,25.83
2023-03-11T11:30:33.389Z,22.63
2023-03-11T11:33:29.922Z,28.23
2023-03-11T11:36:03.407Z,26.00
2023-03-11T11:38:35.941Z,25.35
2023-03-11T11:41:08.782Z,30.52
2023-03-11T11:43:59.832Z,33.30
2023-03-11T11:46:39.575Z,31.63
2023-03-11T11:49:21.184Z,33.75
2023-03-11T11:51:57.960Z,29.50
2023-03-11T11:54:34.993Z,25.10
2023-03-11T11:57:13.159Z,31.63
2023-03-11T11:59:44.239Z,27.30
2023-03-11T12:02:34.776Z,31.02
2023-03-11T12:05:14.394Z,28.00
2023-03-11T12:08:00.813Z,24.25
2023-03-11T12:10:40.329Z,23.80
2023-03-11T12:13:51.572Z,28.35
2023-03-11T12:16:34.723Z,26.33
2023-03-11T12:21:58.101Z,25.98
2023-03-11T12:25:07.032Z,28.58
2023-03-11T12:27:47.285Z,27.55
2023-03-11T12:30:21.386Z,33.63
2023-03-11T12:32:56.730Z,28.20
2023-03-11T12:35:30.298Z,28.58
2023-03-11T12:38:19.966Z,29.45
2023-03-11T12:41:10.969Z,31.92
2023-03-11T12:44:22.727Z,28.63
2023-03-11T12:47:22.793Z,27.30
2023-03-11T12:49:57.334Z,29.60
2023-03-11T12:52:31.220Z,28.13
2023-03-11T12:55:39.353Z,28.52
2023-03-11T12:58:34.281Z,28.88
2023-03-11T13:01:41.813Z,30.90
2023-03-11T13:04:41.945Z,30.15
2023-03-11T13:07:47.732Z,32.85
2023-03-11T13:10:21.673Z,34.47
2023-03-11T13:12:59.834Z,31.52
2023-03-11T13:15:53.707Z,25.25
2023-03-11T13:18:26.120Z,29.13
2023-03-11T13:21:00.494Z,26.85
2023-03-11T13:23:35.192Z,25.90
2023-03-11T13:26:45.044Z,28.92
2023-03-11T13:29:52.508Z,29.67
2023-03-11T13:32:37.098Z,28.00
2023-03-11T13:35:30.536Z,28.70
2023-03-11T13:38:23.111Z,27.52
2023-03-11T13:40:54.038Z,25.63
2023-03-11T13:43:25.083Z,29.25
2023-03-11T13:45:58.796Z,25.80
2023-03-11T13:48:37.488Z,25.80
2023-03-11T13:51:19.198Z,29.00
2023-03-11T13:54:26.015Z,30.42
2023-03-11T13:57:00.797Z,28.50
2023-03-11T13:59:35.201Z,24.77
2023-03-11T14:02:21.836Z,27.15
2023-03-11T14:05:00.933Z,24.33
2023-03-11T14:07:39.182Z,25.77
2023-03-11T14:10:32.629Z,30.27
2023-03-11T14:13:18.527Z,24.85
2023-03-11T14:15:58.570Z,25.30
2023-03-11T14:18:42.297Z,29.42
2023-03-11T14:21:17.587Z,29.30
2023-03-11T14:23:51.142Z,27.15
2023-03-11T14:26:23.929Z,28.08
2023-03-11T14:28:58.765Z,28.45
2023-03-11T14:31:37.042Z,26.13
2023-03-11T14:34:19.366Z,28.63
2023-03-11T14:36:54.914Z,27.42
2023-03-11T14:39:34.034Z,27.98
2023-03-11T14:42:20.307Z,25.60
2023-03-11T14:44:51.613Z,25.38
2023-03-11T14:47:28.443Z,25.75
2023-03-11T14:50:02.013Z,30.50
2023-03-11T14:52:39.312Z,31.38
2023-03-11T14:55:15.311Z,29.25
2023-03-11T14:57:49.892Z,30.67
2023-03-11T15:00:26.438Z,28.35
2023-03-11T15:03:19.281Z,30.83
2023-03-11T15:05:58.314Z,27.13
2023-03-11T15:08:36.091Z,27.83
2023-03-11T15:11:24.120Z,29.10
2023-03-11T15:13:54.552Z,25.92
2023-03-11T15:16:33.869Z,25.27
2023-03-11T15:19:23.572Z,26.67
2023-03-11T15:22:03.157Z,26.65
2023-03-11T15:24:36.273Z,24.98
2023-03-11T15:29:37.602Z,24.63
2023-03-11T15:32:41.530Z,29.10
2023-03-11T15:35:18.872Z,29.67
2023-03-11T15:37:51.334Z,26.20
2023-03-11T15:40:42.375Z,34.38
2023-03-11T15:43:30.489Z,30.10
2023-03-11T15:46:01.767Z,26.08
2023-03-11T15:48:33.805Z,27.00
2023-03-11T15:51:05.350Z,31.25
2023-03-11T15:53:38.363Z,27.00
2023-03-11T15:56:24.485Z,33.15
2023-03-11T15:58:55.436Z,27.65
2023-03-11T16:01:28.819Z,27.35
2023-03-11T16:06:29.750Z,26.08
2023-03-11T16:09:02.537Z,28.23
2023-03-11T16:11:37.389Z,27.58
2023-03-11T16:14:08.442Z,33.28
2023-03-11T16:16:38.855Z,29.90
2023-03-11T16:19:10.006Z,32.97
2023-03-11T16:21:46.931Z,28.92
2023-03-11T16:24:24.925Z,33.78
2023-03-11T16:26:58.236Z,29.10
2023-03-11T16:29:28.692Z,29.25
2023-03-11T16:32:05.161Z,31.55
2023-03-11T16:34:35.615Z,29.80
2023-03-11T16:37:06.088Z,32.45
2023-03-11T16:39:40.392Z,49.92
2023-03-11T16:42:16.201Z,33.17
2023-03-11T16:44:46.963Z,28.55
2023-03-11T16:47:17.084Z,30.30
2023-03-11T16:49:46.337Z,50.35
2023-03-11T16:52:23.246Z,39.55
2023-03-11T16:54:57.232Z,31.65
2023-03-11T16:57:33.031Z,31.52
2023-03-11T17:00:06.741Z,32.88
2023-03-11T17:02:36.750Z,34.78
2023-03-11T17:05:07.583Z,34.65
2023-03-11T17:07:39.992Z,31.65
2023-03-11T17:10:13.397Z,35.03
2023-03-11T17:13:34.717Z,29.98
2023-03-11T17:16:11.455Z,35.10
2023-03-11T17:18:44.398Z,28.33
2023-03-11T17:21:32.288Z,126.18
2023-03-11T17:24:11.974Z,27.92
2023-03-11T17:26:42.825Z,27.25
2023-03-11T17:29:13.290Z,30.30
2023-03-11T17:31:46.024Z,28.35
2023-03-11T17:34:33.478Z,30.65
2023-03-11T17:37:10.018Z,29.55
2023-03-11T17:39:41.330Z,28.50
2023-03-11T17:42:37.449Z,31.98
2023-03-11T17:45:11.581Z,30.17
2023-03-11T17:47:42.073Z,25.65
2023-03-11T17:50:13.392Z,28.83
2023-03-11T17:52:43.260Z,28.10
2023-03-11T17:55:14.098Z,29.83
2023-03-11T17:57:45.795Z,25.00
2023-03-11T18:00:31.240Z,28.25
2023-03-11T18:03:06.296Z,26.60
2023-03-11T18:05:38.309Z,24.73
2023-03-11T18:08:12.536Z,37.45
2023-03-11T18:10:43.264Z,23.48
2023-03-11T18:13:21.554Z,24.88
2023-03-11T18:16:01.259Z,24.08
2023-03-11T18:18:36.410Z,25.85
2023-03-11T18:21:10.619Z,28.33
2023-03-11T18:23:42.145Z,24.33
2023-03-11T18:26:15.448Z,27.38
2023-03-11T18:28:46.798Z,25.30
2023-03-11T18:31:27.163Z,26.15
2023-03-11T18:34:14.690Z,32.30
2023-03-11T18:36:47.279Z,21.90
2023-03-11T18:39:16.465Z,24.83
2023-03-11T18:41:46.942Z,23.52
2023-03-11T18:44:18.682Z,26.48
2023-03-11T18:46:49.193Z,21.88
2023-03-11T18:49:22.378Z,25.17
2023-03-11T18:51:51.248Z,23.40
2023-03-11T18:54:22.484Z,29.60
2023-03-11T18:56:53.440Z,25.43
2023-03-11T18:59:37.786Z,22.23
2023-03-11T19:02:08.259Z,26.52
2023-03-11T19:04:40.546Z,22.75
2023-03-11T19:07:19.545Z,25.77
2023-03-11T19:10:06.998Z,23.50
2023-03-11T19:12:39.626Z,22.92
2023-03-11T19:15:14.760Z,24.30
2023-03-11T19:18:06.184Z,23.13
2023-03-11T19:20:42.677Z,23.87
2023-03-11T19:23:20.316Z,26.40
2023-03-11T19:26:02.488Z,23.42
2023-03-11T19:28:32.955Z,33.30
2023-03-11T19:31:04.253Z,25.92
2023-03-11T19:33:36.756Z,23.85
2023-03-11T19:36:12.965Z,27.85
2023-03-11T19:38:43.850Z,23.38
2023-03-11T19:41:25.948Z,26.48
2023-03-11T19:43:56.705Z,22.08
2023-03-11T19:46:35.038Z,23.98
2023-03-11T19:49:08.019Z,26.52
2023-03-11T19:51:49.990Z,23.48
2023-03-11T19:56:55.301Z,22.92
2023-03-11T19:59:51.082Z,22.92
2023-03-11T20:02:21.572Z,22.90
2023-03-11T20:04:58.379Z,23.17
2023-03-11T20:07:30.136Z,25.25
2023-03-11T20:10:06.820Z,24.50
2023-03-11T20:13:02.020Z,24.40
2023-03-11T20:15:33.679Z,23.13
2023-03-11T20:18:23.364Z,24.40
2023-03-11T20:20:53.230Z,22.85
2023-03-11T20:23:35.059Z,30.33
2023-03-11T20:26:10.238Z,26.77
2023-03-11T20:28:56.851Z,23.08
2023-03-11T20:31:28.167Z,24.13
2023-03-11T20:34:09.563Z,22.65
2023-03-11T20:37:03.812Z,22.77
2023-03-11T20:39:58.098Z,22.35
2023-03-11T20:42:28.909Z,22.65
2023-03-11T20:45:06.507Z,22.88
2023-03-11T20:47:38.398Z,23.40
2023-03-11T20:50:25.811Z,24.10
2023-03-11T20:52:58.345Z,23.13
2023-03-11T20:55:33.232Z,22.40
2023-03-11T20:58:03.137Z,21.88
2023-03-11T21:00:34.225Z,21.48
2023-03-11T21:03:12.683Z,20.95
2023-03-11T21:05:49.288Z,22.52
2023-03-11T21:08:20.402Z,24.23
2023-03-11T21:11:08.214Z,22.13
2023-03-11T21:13:37.939Z,22.50
2023-03-11T21:16:13.182Z,27.13
2023-03-11T21:18:54.347Z,21.65
2023-03-11T21:21:25.585Z,20.48
2023-03-11T21:23:58.905Z,21.08
2023-03-11T21:26:35.455Z,20.92
2023-03-11T21:29:11.916Z,21.27
2023-03-11T21:31:48.823Z,21.40
2023-03-11T21:34:31.936Z,21.42
2023-03-11T21:37:05.428Z,23.42
2023-03-11T21:39:34.586Z,20.20
2023-03-11T21:42:06.447Z,21.25
2023-03-11T21:44:38.125Z,20.73
2023-03-11T21:47:08.516Z,23.35
2023-03-11T21:49:39.422Z,21.83
2023-03-11T21:52:11.810Z,23.52
2023-03-11T21:54:48.828Z,21.65
2023-03-11T21:57:49.646Z,21.38
2023-03-11T22:00:20.343Z,175.00
2023-03-11T22:02:51.012Z,19.90
2023-03-11T22:05:21.396Z,20.25
2023-03-11T22:07:51.650Z,20.35
2023-03-11T22:10:24.076Z,20.45
2023-03-11T22:12:59.772Z,21.98
2023-03-11T22:16:01.353Z,21.45
2023-03-11T22:18:32.738Z,21.02
2023-03-11T22:21:03.681Z,22.00
2023-03-11T22:23:35.789Z,20.80
2023-03-11T22:26:07.137Z,32.38
2023-03-11T22:28:53.218Z,22.27
2023-03-11T22:31:23.026Z,164.68
2023-03-11T22:33:53.454Z,21.58
2023-03-11T22:36:24.513Z,19.05
2023-03-11T22:38:59.742Z,20.38
2023-03-11T22:41:31.836Z,19.55
2023-03-11T22:44:03.606Z,20.55
2023-03-11T22:46:41.535Z,20.33
2023-03-11T22:49:17.808Z,22.95
2023-03-11T22:51:55.501Z,19.60
2023-03-11T22:57:09.116Z,21.20
2023-03-11T22:59:52.586Z,20.08
2023-03-11T23:02:24.935Z,18.42
2023-03-11T23:05:06.729Z,20.50
2023-03-11T23:07:46.003Z,20.17
2023-03-11T23:10:23.974Z,21.88
2023-03-11T23:13:05.385Z,20.85
2023-03-11T23:18:09.013Z,20.13
2023-03-11T23:20:55.078Z,17.55
2023-03-11T23:23:51.086Z,18.10
2023-03-11T23:26:28.345Z,18.60
2023-03-11T23:28:58.801Z,18.50
2023-03-11T23:31:32.061Z,19.40
2023-03-11T23:34:13.475Z,19.02
2023-03-11T23:36:43.790Z,18.58
2023-03-11T23:39:22.076Z,20.17
2023-03-11T23:41:56.836Z,18.20
2023-03-11T23:44:42.624Z,19.42
2023-03-11T23:47:17.095Z,20.15
2023-03-11T23:52:39.056Z,18.88
2023-03-11T23:55:09.667Z,19.90
2023-03-11T23:57:48.604Z,17.55
